aviador You're here:

FAKM Decoded Metar

KIMBERLEY in SOUTH AFRICA
Report Time2017-10-22 06:00:00
UTC Time2017-10-22 06:28:01
Flight Rules vfr VFR
Wind360° at 11 kt
W.Decomp.*RWY 02: 11.0 kt HW 0.2 kt RCW
RWY 10: 2.1 kt HW 10.8 kt LCW
Visibility9999 m
Phenomena:N/A
Clouds:N/A
Expected CloudBase > 4,400 ft AGL from Temp-Dew spread
CeilingNone
Temp21°C (ISA +14)
Dew Point10°C (50% RH)
AAT17.1°C
QNH1023 hPa
Density Alt5,344 ft
Elevation3,911 ft
Report Wrong Elevation
Raw Report
METAR FAKM 220600Z 36011KT CAVOK 21/10 Q1023=

Extra information for FAKM:More info

Metar Taf Metar & Taf Last 4 Metars F.Rules Stats Wind Profile Meteogram Temp Stats Airport Information Weather charts Add Link Nearby VenuesMetar ALERT Operation Metar Decoded Social comments